sensor_id;sensor_type;location;lat;lon;timestamp;P1;durP1;ratioP1;P2;durP2;ratioP2
37559;SDS011;23398;50.928;7.084;2022-12-05T00:03:49;11.15;;;7.85;;
37559;SDS011;23398;50.928;7.084;2022-12-05T00:06:16;11.73;;;8.38;;
37559;SDS011;23398;50.928;7.084;2022-12-05T00:08:43;11.50;;;8.07;;
37559;SDS011;23398;50.928;7.084;2022-12-05T00:11:10;13.02;;;8.57;;
37559;SDS011;23398;50.928;7.084;2022-12-05T00:13:40;12.73;;;8.73;;
37559;SDS011;23398;50.928;7.084;2022-12-05T00:16:07;13.20;;;8.70;;
37559;SDS011;23398;50.928;7.084;2022-12-05T00:18:34;14.88;;;9.30;;
37559;SDS011;23398;50.928;7.084;2022-12-05T00:21:00;10.90;;;7.97;;
37559;SDS011;23398;50.928;7.084;2022-12-05T00:23:26;12.75;;;8.60;;
37559;SDS011;23398;50.928;7.084;2022-12-05T00:25:51;11.80;;;7.95;;
37559;SDS011;23398;50.928;7.084;2022-12-05T00:28:17;11.93;;;8.13;;
37559;SDS011;23398;50.928;7.084;2022-12-05T00:30:42;12.65;;;8.40;;
37559;SDS011;23398;50.928;7.084;2022-12-05T00:33:08;11.70;;;8.43;;
37559;SDS011;23398;50.928;7.084;2022-12-05T00:35:34;14.40;;;8.57;;
37559;SDS011;23398;50.928;7.084;2022-12-05T00:37:59;13.70;;;9.13;;
37559;SDS011;23398;50.928;7.084;2022-12-05T00:40:25;14.00;;;9.10;;
37559;SDS011;23398;50.928;7.084;2022-12-05T00:42:50;12.73;;;8.57;;
37559;SDS011;23398;50.928;7.084;2022-12-05T00:45:16;12.50;;;8.55;;
37559;SDS011;23398;50.928;7.084;2022-12-05T00:47:41;13.68;;;8.40;;
37559;SDS011;23398;50.928;7.084;2022-12-05T00:50:07;12.57;;;8.75;;
37559;SDS011;23398;50.928;7.084;2022-12-05T00:52:33;14.77;;;9.35;;
37559;SDS011;23398;50.928;7.084;2022-12-05T00:54:58;13.20;;;8.85;;
37559;SDS011;23398;50.928;7.084;2022-12-05T00:57:24;13.40;;;8.93;;
37559;SDS011;23398;50.928;7.084;2022-12-05T00:59:49;12.38;;;8.38;;
37559;SDS011;23398;50.928;7.084;2022-12-05T01:02:15;14.15;;;9.20;;
37559;SDS011;23398;50.928;7.084;2022-12-05T01:04:41;13.90;;;9.27;;
37559;SDS011;23398;50.928;7.084;2022-12-05T01:07:06;16.25;;;9.88;;
37559;SDS011;23398;50.928;7.084;2022-12-05T01:09:32;13.60;;;9.60;;
37559;SDS011;23398;50.928;7.084;2022-12-05T01:11:57;13.63;;;9.50;;
37559;SDS011;23398;50.928;7.084;2022-12-05T01:14:23;14.32;;;9.75;;
37559;SDS011;23398;50.928;7.084;2022-12-05T01:16:50;15.43;;;10.15;;
37559;SDS011;23398;50.928;7.084;2022-12-05T01:19:20;15.45;;;9.95;;
37559;SDS011;23398;50.928;7.084;2022-12-05T01:21:50;14.95;;;9.55;;
37559;SDS011;23398;50.928;7.084;2022-12-05T01:24:17;13.75;;;9.07;;
37559;SDS011;23398;50.928;7.084;2022-12-05T01:26:44;14.50;;;9.52;;
37559;SDS011;23398;50.928;7.084;2022-12-05T01:29:13;16.40;;;10.30;;
37559;SDS011;23398;50.928;7.084;2022-12-05T01:31:40;14.40;;;9.65;;
37559;SDS011;23398;50.928;7.084;2022-12-05T01:34:07;13.82;;;9.32;;
37559;SDS011;23398;50.928;7.084;2022-12-05T01:36:35;15.13;;;10.27;;
37559;SDS011;23398;50.928;7.084;2022-12-05T01:39:00;16.10;;;9.93;;
37559;SDS011;23398;50.928;7.084;2022-12-05T01:41:28;14.68;;;9.40;;
37559;SDS011;23398;50.928;7.084;2022-12-05T01:43:59;14.13;;;9.63;;
37559;SDS011;23398;50.928;7.084;2022-12-05T01:46:53;15.75;;;9.93;;
37559;SDS011;23398;50.928;7.084;2022-12-05T01:49:39;12.98;;;9.15;;
37559;SDS011;23398;50.928;7.084;2022-12-05T01:52:08;12.98;;;9.35;;
37559;SDS011;23398;50.928;7.084;2022-12-05T01:54:37;15.70;;;9.95;;
37559;SDS011;23398;50.928;7.084;2022-12-05T01:57:04;15.13;;;10.00;;
37559;SDS011;23398;50.928;7.084;2022-12-05T01:59:35;16.02;;;10.10;;
37559;SDS011;23398;50.928;7.084;2022-12-05T02:02:04;13.20;;;9.27;;
37559;SDS011;23398;50.928;7.084;2022-12-05T02:04:32;13.98;;;9.05;;
37559;SDS011;23398;50.928;7.084;2022-12-05T02:07:02;13.25;;;8.93;;
37559;SDS011;23398;50.928;7.084;2022-12-05T02:09:28;14.55;;;10.13;;
37559;SDS011;23398;50.928;7.084;2022-12-05T02:11:55;14.20;;;9.45;;
37559;SDS011;23398;50.928;7.084;2022-12-05T02:19:58;15.38;;;9.40;;
37559;SDS011;23398;50.928;7.084;2022-12-05T02:30:53;12.73;;;9.40;;
37559;SDS011;23398;50.928;7.084;2022-12-05T02:33:33;13.00;;;8.80;;
37559;SDS011;23398;50.928;7.084;2022-12-05T02:36:10;16.05;;;9.43;;
37559;SDS011;23398;50.928;7.084;2022-12-05T02:38:59;12.63;;;8.77;;
37559;SDS011;23398;50.928;7.084;2022-12-05T02:41:34;13.02;;;9.32;;
37559;SDS011;23398;50.928;7.084;2022-12-05T02:44:12;13.93;;;9.00;;
37559;SDS011;23398;50.928;7.084;2022-12-05T02:46:42;13.50;;;8.82;;
37559;SDS011;23398;50.928;7.084;2022-12-05T02:49:12;14.65;;;9.20;;
37559;SDS011;23398;50.928;7.084;2022-12-05T02:51:44;12.25;;;8.82;;
37559;SDS011;23398;50.928;7.084;2022-12-05T02:54:15;14.35;;;9.05;;
37559;SDS011;23398;50.928;7.084;2022-12-05T02:56:43;14.30;;;9.57;;
37559;SDS011;23398;50.928;7.084;2022-12-05T02:59:10;11.20;;;8.40;;
37559;SDS011;23398;50.928;7.084;2022-12-05T03:01:36;12.32;;;8.23;;
37559;SDS011;23398;50.928;7.084;2022-12-05T03:04:02;12.75;;;8.90;;
37559;SDS011;23398;50.928;7.084;2022-12-05T03:06:31;11.33;;;8.20;;
37559;SDS011;23398;50.928;7.084;2022-12-05T03:09:06;11.52;;;7.63;;
37559;SDS011;23398;50.928;7.084;2022-12-05T03:11:37;12.90;;;7.88;;
37559;SDS011;23398;50.928;7.084;2022-12-05T03:14:12;11.52;;;8.00;;
37559;SDS011;23398;50.928;7.084;2022-12-05T03:16:49;10.68;;;7.85;;
37559;SDS011;23398;50.928;7.084;2022-12-05T03:19:20;11.52;;;7.93;;
37559;SDS011;23398;50.928;7.084;2022-12-05T03:22:00;12.48;;;7.90;;
37559;SDS011;23398;50.928;7.084;2022-12-05T03:24:32;11.98;;;8.07;;
37559;SDS011;23398;50.928;7.084;2022-12-05T03:27:21;13.82;;;7.50;;
37559;SDS011;23398;50.928;7.084;2022-12-05T03:30:07;11.90;;;8.40;;
37559;SDS011;23398;50.928;7.084;2022-12-05T03:45:36;13.00;;;8.37;;
37559;SDS011;23398;50.928;7.084;2022-12-05T03:48:14;11.50;;;7.90;;
37559;SDS011;23398;50.928;7.084;2022-12-05T03:50:47;10.93;;;7.97;;
37559;SDS011;23398;50.928;7.084;2022-12-05T03:53:19;12.23;;;8.43;;
37559;SDS011;23398;50.928;7.084;2022-12-05T03:55:57;11.25;;;8.02;;
37559;SDS011;23398;50.928;7.084;2022-12-05T03:58:30;12.30;;;8.25;;
37559;SDS011;23398;50.928;7.084;2022-12-05T04:01:02;11.88;;;8.23;;
37559;SDS011;23398;50.928;7.084;2022-12-05T04:03:32;11.63;;;7.47;;
37559;SDS011;23398;50.928;7.084;2022-12-05T04:08:59;13.00;;;7.87;;
37559;SDS011;23398;50.928;7.084;2022-12-05T04:11:29;10.60;;;7.23;;
37559;SDS011;23398;50.928;7.084;2022-12-05T04:13:59;11.13;;;7.32;;
37559;SDS011;23398;50.928;7.084;2022-12-05T04:16:33;10.43;;;7.17;;
37559;SDS011;23398;50.928;7.084;2022-12-05T04:19:27;10.88;;;6.68;;
37559;SDS011;23398;50.928;7.084;2022-12-05T04:22:32;11.57;;;7.13;;
37559;SDS011;23398;50.928;7.084;2022-12-05T04:24:59;11.20;;;6.83;;
37559;SDS011;23398;50.928;7.084;2022-12-05T04:30:39;12.23;;;7.90;;
37559;SDS011;23398;50.928;7.084;2022-12-05T04:41:18;11.50;;;7.60;;
37559;SDS011;23398;50.928;7.084;2022-12-05T04:43:48;13.47;;;8.10;;
37559;SDS011;23398;50.928;7.084;2022-12-05T04:46:16;10.52;;;7.32;;
37559;SDS011;23398;50.928;7.084;2022-12-05T04:48:45;13.40;;;8.37;;
37559;SDS011;23398;50.928;7.084;2022-12-05T04:51:17;10.50;;;7.43;;
37559;SDS011;23398;50.928;7.084;2022-12-05T04:53:50;10.80;;;7.53;;
37559;SDS011;23398;50.928;7.084;2022-12-05T04:56:20;12.48;;;7.80;;
37559;SDS011;23398;50.928;7.084;2022-12-05T04:58:48;11.60;;;7.65;;
37559;SDS011;23398;50.928;7.084;2022-12-05T05:01:18;9.90;;;7.20;;
37559;SDS011;23398;50.928;7.084;2022-12-05T05:04:08;11.55;;;7.30;;
37559;SDS011;23398;50.928;7.084;2022-12-05T05:06:39;10.40;;;7.00;;
37559;SDS011;23398;50.928;7.084;2022-12-05T05:09:05;10.20;;;7.30;;
37559;SDS011;23398;50.928;7.084;2022-12-05T05:11:32;11.03;;;7.20;;
37559;SDS011;23398;50.928;7.084;2022-12-05T05:13:59;10.17;;;7.10;;
37559;SDS011;23398;50.928;7.084;2022-12-05T05:16:33;11.43;;;7.23;;
37559;SDS011;23398;50.928;7.084;2022-12-05T05:19:00;10.90;;;7.57;;
37559;SDS011;23398;50.928;7.084;2022-12-05T05:21:27;11.00;;;7.03;;
37559;SDS011;23398;50.928;7.084;2022-12-05T05:23:54;10.13;;;7.00;;
37559;SDS011;23398;50.928;7.084;2022-12-05T05:26:22;11.67;;;7.40;;
37559;SDS011;23398;50.928;7.084;2022-12-05T05:28:49;13.17;;;7.93;;
37559;SDS011;23398;50.928;7.084;2022-12-05T05:31:15;11.80;;;7.37;;
37559;SDS011;23398;50.928;7.084;2022-12-05T05:33:41;12.10;;;7.30;;
37559;SDS011;23398;50.928;7.084;2022-12-05T05:36:09;11.57;;;7.67;;
37559;SDS011;23398;50.928;7.084;2022-12-05T05:38:37;11.90;;;7.80;;
37559;SDS011;23398;50.928;7.084;2022-12-05T05:41:04;11.80;;;7.63;;
37559;SDS011;23398;50.928;7.084;2022-12-05T05:43:30;9.87;;;7.13;;
37559;SDS011;23398;50.928;7.084;2022-12-05T05:45:56;10.07;;;6.93;;
37559;SDS011;23398;50.928;7.084;2022-12-05T05:48:21;9.47;;;6.70;;
37559;SDS011;23398;50.928;7.084;2022-12-05T05:50:47;9.38;;;6.20;;
37559;SDS011;23398;50.928;7.084;2022-12-05T05:53:12;9.63;;;5.83;;
37559;SDS011;23398;50.928;7.084;2022-12-05T05:55:38;10.27;;;6.88;;
37559;SDS011;23398;50.928;7.084;2022-12-05T05:58:05;9.33;;;6.60;;
37559;SDS011;23398;50.928;7.084;2022-12-05T06:00:30;9.60;;;6.40;;
37559;SDS011;23398;50.928;7.084;2022-12-05T06:02:56;10.03;;;6.13;;
37559;SDS011;23398;50.928;7.084;2022-12-05T06:05:21;10.67;;;7.10;;
37559;SDS011;23398;50.928;7.084;2022-12-05T06:07:47;10.67;;;6.87;;
37559;SDS011;23398;50.928;7.084;2022-12-05T06:10:13;9.00;;;6.07;;
37559;SDS011;23398;50.928;7.084;2022-12-05T06:12:38;9.57;;;6.60;;
37559;SDS011;23398;50.928;7.084;2022-12-05T06:15:04;9.73;;;6.57;;
37559;SDS011;23398;50.928;7.084;2022-12-05T06:17:30;10.00;;;6.77;;
37559;SDS011;23398;50.928;7.084;2022-12-05T06:19:56;9.87;;;6.60;;
37559;SDS011;23398;50.928;7.084;2022-12-05T06:22:22;8.50;;;6.40;;
37559;SDS011;23398;50.928;7.084;2022-12-05T06:24:47;8.68;;;6.18;;
37559;SDS011;23398;50.928;7.084;2022-12-05T06:27:13;9.80;;;6.47;;
37559;SDS011;23398;50.928;7.084;2022-12-05T06:29:38;10.03;;;6.80;;
37559;SDS011;23398;50.928;7.084;2022-12-05T06:32:04;9.63;;;6.10;;
37559;SDS011;23398;50.928;7.084;2022-12-05T06:34:30;8.87;;;6.20;;
37559;SDS011;23398;50.928;7.084;2022-12-05T06:36:56;9.70;;;6.50;;
37559;SDS011;23398;50.928;7.084;2022-12-05T06:39:23;11.50;;;6.05;;
37559;SDS011;23398;50.928;7.084;2022-12-05T06:41:49;10.03;;;6.73;;
37559;SDS011;23398;50.928;7.084;2022-12-05T06:44:15;9.67;;;6.47;;
37559;SDS011;23398;50.928;7.084;2022-12-05T06:46:40;8.93;;;6.67;;
37559;SDS011;23398;50.928;7.084;2022-12-05T06:49:06;8.93;;;6.73;;
37559;SDS011;23398;50.928;7.084;2022-12-05T06:51:33;8.70;;;6.50;;
37559;SDS011;23398;50.928;7.084;2022-12-05T06:54:00;8.47;;;6.40;;
37559;SDS011;23398;50.928;7.084;2022-12-05T06:56:25;8.93;;;6.47;;
37559;SDS011;23398;50.928;7.084;2022-12-05T06:58:51;7.70;;;5.67;;
37559;SDS011;23398;50.928;7.084;2022-12-05T07:01:18;8.50;;;6.47;;
37559;SDS011;23398;50.928;7.084;2022-12-05T07:06:46;8.85;;;6.18;;
37559;SDS011;23398;50.928;7.084;2022-12-05T07:09:15;9.33;;;6.20;;
37559;SDS011;23398;50.928;7.084;2022-12-05T07:11:42;8.40;;;6.13;;
37559;SDS011;23398;50.928;7.084;2022-12-05T07:14:14;9.57;;;6.33;;
37559;SDS011;23398;50.928;7.084;2022-12-05T07:16:40;9.50;;;6.97;;
37559;SDS011;23398;50.928;7.084;2022-12-05T07:19:05;9.30;;;7.00;;
37559;SDS011;23398;50.928;7.084;2022-12-05T07:21:31;10.90;;;6.88;;
37559;SDS011;23398;50.928;7.084;2022-12-05T07:23:57;11.97;;;8.17;;
37559;SDS011;23398;50.928;7.084;2022-12-05T07:26:22;10.43;;;7.33;;
37559;SDS011;23398;50.928;7.084;2022-12-05T07:28:49;9.67;;;6.90;;
37559;SDS011;23398;50.928;7.084;2022-12-05T07:31:17;9.90;;;6.87;;
37559;SDS011;23398;50.928;7.084;2022-12-05T07:33:46;10.37;;;7.37;;
37559;SDS011;23398;50.928;7.084;2022-12-05T07:36:13;10.70;;;7.37;;
37559;SDS011;23398;50.928;7.084;2022-12-05T07:38:44;10.60;;;7.10;;
37559;SDS011;23398;50.928;7.084;2022-12-05T07:41:13;9.80;;;7.15;;
37559;SDS011;23398;50.928;7.084;2022-12-05T07:43:44;10.68;;;7.05;;
37559;SDS011;23398;50.928;7.084;2022-12-05T07:46:10;11.10;;;7.30;;
37559;SDS011;23398;50.928;7.084;2022-12-05T07:48:35;10.63;;;6.57;;
37559;SDS011;23398;50.928;7.084;2022-12-05T07:51:02;9.80;;;6.77;;
37559;SDS011;23398;50.928;7.084;2022-12-05T07:53:29;10.20;;;7.17;;
37559;SDS011;23398;50.928;7.084;2022-12-05T07:55:59;11.80;;;7.43;;
37559;SDS011;23398;50.928;7.084;2022-12-05T07:58:28;11.57;;;8.40;;
37559;SDS011;23398;50.928;7.084;2022-12-05T08:00:55;10.67;;;7.37;;
37559;SDS011;23398;50.928;7.084;2022-12-05T08:03:22;12.10;;;7.50;;
37559;SDS011;23398;50.928;7.084;2022-12-05T08:05:48;9.97;;;6.97;;
37559;SDS011;23398;50.928;7.084;2022-12-05T08:08:14;12.40;;;7.20;;
37559;SDS011;23398;50.928;7.084;2022-12-05T08:10:39;10.13;;;7.50;;
37559;SDS011;23398;50.928;7.084;2022-12-05T08:13:05;10.97;;;7.23;;
37559;SDS011;23398;50.928;7.084;2022-12-05T08:15:33;10.53;;;7.03;;
37559;SDS011;23398;50.928;7.084;2022-12-05T08:17:59;11.27;;;6.97;;
37559;SDS011;23398;50.928;7.084;2022-12-05T08:20:25;10.75;;;6.85;;
37559;SDS011;23398;50.928;7.084;2022-12-05T08:22:52;9.67;;;6.77;;
37559;SDS011;23398;50.928;7.084;2022-12-05T08:25:18;10.87;;;6.93;;
37559;SDS011;23398;50.928;7.084;2022-12-05T08:27:43;12.18;;;6.82;;
37559;SDS011;23398;50.928;7.084;2022-12-05T08:30:09;10.23;;;7.17;;
37559;SDS011;23398;50.928;7.084;2022-12-05T08:32:35;11.95;;;7.25;;
37559;SDS011;23398;50.928;7.084;2022-12-05T08:35:00;10.53;;;7.50;;
37559;SDS011;23398;50.928;7.084;2022-12-05T08:37:26;13.97;;;8.30;;
37559;SDS011;23398;50.928;7.084;2022-12-05T08:39:51;11.80;;;7.73;;
37559;SDS011;23398;50.928;7.084;2022-12-05T08:42:17;11.20;;;7.63;;
37559;SDS011;23398;50.928;7.084;2022-12-05T08:44:42;11.27;;;7.85;;
37559;SDS011;23398;50.928;7.084;2022-12-05T08:47:08;12.30;;;7.83;;
37559;SDS011;23398;50.928;7.084;2022-12-05T08:49:33;11.82;;;8.05;;
37559;SDS011;23398;50.928;7.084;2022-12-05T08:51:59;11.70;;;7.43;;
37559;SDS011;23398;50.928;7.084;2022-12-05T08:54:24;12.48;;;7.90;;
37559;SDS011;23398;50.928;7.084;2022-12-05T08:56:50;10.80;;;7.40;;
37559;SDS011;23398;50.928;7.084;2022-12-05T08:59:16;9.63;;;7.13;;
37559;SDS011;23398;50.928;7.084;2022-12-05T09:01:42;14.35;;;7.40;;
37559;SDS011;23398;50.928;7.084;2022-12-05T09:04:08;10.57;;;7.17;;
37559;SDS011;23398;50.928;7.084;2022-12-05T09:06:34;10.60;;;7.75;;
37559;SDS011;23398;50.928;7.084;2022-12-05T09:09:02;10.55;;;7.45;;
37559;SDS011;23398;50.928;7.084;2022-12-05T09:11:30;10.77;;;7.47;;
37559;SDS011;23398;50.928;7.084;2022-12-05T09:13:58;11.53;;;7.60;;
37559;SDS011;23398;50.928;7.084;2022-12-05T09:16:26;10.90;;;7.30;;
37559;SDS011;23398;50.928;7.084;2022-12-05T09:18:53;10.27;;;7.10;;
37559;SDS011;23398;50.928;7.084;2022-12-05T09:21:21;12.35;;;8.15;;
37559;SDS011;23398;50.928;7.084;2022-12-05T09:23:49;12.47;;;8.13;;
37559;SDS011;23398;50.928;7.084;2022-12-05T09:26:16;14.37;;;8.50;;
37559;SDS011;23398;50.928;7.084;2022-12-05T09:28:43;11.80;;;8.00;;
37559;SDS011;23398;50.928;7.084;2022-12-05T09:31:10;13.83;;;8.23;;
37559;SDS011;23398;50.928;7.084;2022-12-05T09:33:41;14.17;;;8.03;;
37559;SDS011;23398;50.928;7.084;2022-12-05T09:36:10;12.57;;;8.23;;
37559;SDS011;23398;50.928;7.084;2022-12-05T09:38:38;14.15;;;8.25;;
37559;SDS011;23398;50.928;7.084;2022-12-05T09:41:10;10.75;;;7.63;;
37559;SDS011;23398;50.928;7.084;2022-12-05T09:43:48;10.63;;;7.80;;
37559;SDS011;23398;50.928;7.084;2022-12-05T09:46:35;11.18;;;8.02;;
37559;SDS011;23398;50.928;7.084;2022-12-05T09:49:15;10.50;;;7.65;;
37559;SDS011;23398;50.928;7.084;2022-12-05T09:51:43;10.90;;;7.95;;
37559;SDS011;23398;50.928;7.084;2022-12-05T09:54:11;10.52;;;7.47;;
37559;SDS011;23398;50.928;7.084;2022-12-05T09:56:38;13.90;;;8.68;;
37559;SDS011;23398;50.928;7.084;2022-12-05T09:59:08;12.60;;;8.65;;
37559;SDS011;23398;50.928;7.084;2022-12-05T10:01:40;12.88;;;8.88;;
37559;SDS011;23398;50.928;7.084;2022-12-05T10:13:04;11.73;;;7.93;;
37559;SDS011;23398;50.928;7.084;2022-12-05T10:16:02;11.82;;;7.93;;
37559;SDS011;23398;50.928;7.084;2022-12-05T10:21:20;12.43;;;8.10;;
37559;SDS011;23398;50.928;7.084;2022-12-05T10:23:58;12.00;;;8.35;;
37559;SDS011;23398;50.928;7.084;2022-12-05T10:26:27;12.10;;;8.30;;
37559;SDS011;23398;50.928;7.084;2022-12-05T10:29:02;11.60;;;8.18;;
37559;SDS011;23398;50.928;7.084;2022-12-05T10:31:50;12.32;;;8.02;;
37559;SDS011;23398;50.928;7.084;2022-12-05T10:34:39;12.15;;;8.18;;
37559;SDS011;23398;50.928;7.084;2022-12-05T10:37:08;10.73;;;7.68;;
37559;SDS011;23398;50.928;7.084;2022-12-05T10:39:38;11.80;;;8.77;;
37559;SDS011;23398;50.928;7.084;2022-12-05T10:42:04;12.60;;;8.32;;
37559;SDS011;23398;50.928;7.084;2022-12-05T10:44:32;12.30;;;8.57;;
37559;SDS011;23398;50.928;7.084;2022-12-05T10:46:58;12.88;;;8.85;;
37559;SDS011;23398;50.928;7.084;2022-12-05T10:49:25;13.20;;;8.85;;
37559;SDS011;23398;50.928;7.084;2022-12-05T10:51:51;13.68;;;8.82;;
37559;SDS011;23398;50.928;7.084;2022-12-05T10:54:19;13.45;;;8.88;;
37559;SDS011;23398;50.928;7.084;2022-12-05T10:56:49;12.10;;;8.45;;
37559;SDS011;23398;50.928;7.084;2022-12-05T10:59:17;12.63;;;9.02;;
37559;SDS011;23398;50.928;7.084;2022-12-05T11:01:48;14.63;;;8.90;;
37559;SDS011;23398;50.928;7.084;2022-12-05T11:06:47;12.52;;;8.52;;
37559;SDS011;23398;50.928;7.084;2022-12-05T11:12:20;16.80;;;9.32;;
37559;SDS011;23398;50.928;7.084;2022-12-05T11:14:59;14.05;;;9.70;;
37559;SDS011;23398;50.928;7.084;2022-12-05T11:20:31;16.15;;;10.02;;
37559;SDS011;23398;50.928;7.084;2022-12-05T11:22:49;15.40;;;9.98;;
37559;SDS011;23398;50.928;7.084;2022-12-05T11:25:33;17.60;;;10.75;;
37559;SDS011;23398;50.928;7.084;2022-12-05T11:28:00;16.50;;;10.73;;
37559;SDS011;23398;50.928;7.084;2022-12-05T11:30:54;14.15;;;9.82;;
37559;SDS011;23398;50.928;7.084;2022-12-05T11:33:23;16.23;;;10.98;;
37559;SDS011;23398;50.928;7.084;2022-12-05T11:35:51;16.50;;;11.23;;
37559;SDS011;23398;50.928;7.084;2022-12-05T11:38:20;15.00;;;10.70;;
37559;SDS011;23398;50.928;7.084;2022-12-05T11:40:57;16.23;;;10.77;;
37559;SDS011;23398;50.928;7.084;2022-12-05T12:05:37;15.88;;;10.02;;
37559;SDS011;23398;50.928;7.084;2022-12-05T12:08:26;16.83;;;10.82;;
37559;SDS011;23398;50.928;7.084;2022-12-05T12:11:09;20.00;;;11.15;;
37559;SDS011;23398;50.928;7.084;2022-12-05T12:13:51;15.88;;;10.77;;
37559;SDS011;23398;50.928;7.084;2022-12-05T12:22:03;11.40;;;8.30;;
37559;SDS011;23398;50.928;7.084;2022-12-05T12:27:34;8.90;;;6.75;;
37559;SDS011;23398;50.928;7.084;2022-12-05T12:30:23;9.18;;;6.68;;
37559;SDS011;23398;50.928;7.084;2022-12-05T12:33:10;7.55;;;5.38;;
37559;SDS011;23398;50.928;7.084;2022-12-05T12:35:48;6.63;;;5.22;;
37559;SDS011;23398;50.928;7.084;2022-12-05T12:40:54;7.28;;;5.88;;
37559;SDS011;23398;50.928;7.084;2022-12-05T12:51:23;7.65;;;6.00;;
37559;SDS011;23398;50.928;7.084;2022-12-05T12:53:55;8.77;;;6.70;;
37559;SDS011;23398;50.928;7.084;2022-12-05T12:56:31;11.63;;;7.95;;
37559;SDS011;23398;50.928;7.084;2022-12-05T13:02:11;9.93;;;6.50;;
37559;SDS011;23398;50.928;7.084;2022-12-05T13:08:04;6.43;;;5.80;;
37559;SDS011;23398;50.928;7.084;2022-12-05T13:10:51;7.90;;;6.15;;
37559;SDS011;23398;50.928;7.084;2022-12-05T13:13:20;6.60;;;5.88;;
37559;SDS011;23398;50.928;7.084;2022-12-05T13:15:51;7.57;;;6.78;;
37559;SDS011;23398;50.928;7.084;2022-12-05T13:18:21;9.05;;;6.93;;
37559;SDS011;23398;50.928;7.084;2022-12-05T13:20:58;8.82;;;6.80;;
37559;SDS011;23398;50.928;7.084;2022-12-05T13:23:40;10.20;;;8.07;;
37559;SDS011;23398;50.928;7.084;2022-12-05T13:26:10;12.20;;;8.55;;
37559;SDS011;23398;50.928;7.084;2022-12-05T13:28:46;12.35;;;9.02;;
37559;SDS011;23398;50.928;7.084;2022-12-05T13:31:39;10.63;;;8.63;;
37559;SDS011;23398;50.928;7.084;2022-12-05T13:37:10;12.35;;;8.85;;
37559;SDS011;23398;50.928;7.084;2022-12-05T13:40:20;11.40;;;8.48;;
37559;SDS011;23398;50.928;7.084;2022-12-05T13:43:11;10.30;;;8.15;;
37559;SDS011;23398;50.928;7.084;2022-12-05T13:45:40;8.65;;;7.13;;
37559;SDS011;23398;50.928;7.084;2022-12-05T13:48:19;9.40;;;7.55;;
37559;SDS011;23398;50.928;7.084;2022-12-05T13:50:49;10.90;;;7.72;;
37559;SDS011;23398;50.928;7.084;2022-12-05T13:56:22;9.35;;;7.18;;
37559;SDS011;23398;50.928;7.084;2022-12-05T13:58:55;7.65;;;5.95;;
37559;SDS011;23398;50.928;7.084;2022-12-05T14:09:03;7.65;;;5.75;;
37559;SDS011;23398;50.928;7.084;2022-12-05T14:17:25;6.47;;;5.40;;
37559;SDS011;23398;50.928;7.084;2022-12-05T14:25:51;6.45;;;5.35;;
37559;SDS011;23398;50.928;7.084;2022-12-05T14:39:21;8.00;;;6.70;;
37559;SDS011;23398;50.928;7.084;2022-12-05T14:41:55;8.38;;;6.65;;
37559;SDS011;23398;50.928;7.084;2022-12-05T14:44:25;8.48;;;6.80;;
37559;SDS011;23398;50.928;7.084;2022-12-05T14:46:56;9.75;;;6.85;;
37559;SDS011;23398;50.928;7.084;2022-12-05T14:52:17;9.95;;;7.13;;
37559;SDS011;23398;50.928;7.084;2022-12-05T14:54:49;7.80;;;6.43;;
37559;SDS011;23398;50.928;7.084;2022-12-05T14:57:17;7.93;;;6.40;;
37559;SDS011;23398;50.928;7.084;2022-12-05T14:59:45;8.77;;;6.75;;
37559;SDS011;23398;50.928;7.084;2022-12-05T15:02:26;8.80;;;7.50;;
37559;SDS011;23398;50.928;7.084;2022-12-05T15:07:51;7.85;;;6.60;;
37559;SDS011;23398;50.928;7.084;2022-12-05T15:10:24;8.70;;;6.82;;
37559;SDS011;23398;50.928;7.084;2022-12-05T15:12:56;8.38;;;6.72;;
37559;SDS011;23398;50.928;7.084;2022-12-05T15:18:13;7.35;;;6.50;;
37559;SDS011;23398;50.928;7.084;2022-12-05T15:23:52;7.82;;;6.57;;
37559;SDS011;23398;50.928;7.084;2022-12-05T15:26:24;9.48;;;7.72;;
37559;SDS011;23398;50.928;7.084;2022-12-05T15:29:04;8.60;;;6.80;;
37559;SDS011;23398;50.928;7.084;2022-12-05T15:31:31;12.90;;;9.82;;
37559;SDS011;23398;50.928;7.084;2022-12-05T15:34:32;10.93;;;8.18;;
37559;SDS011;23398;50.928;7.084;2022-12-05T15:42:24;10.65;;;7.32;;
37559;SDS011;23398;50.928;7.084;2022-12-05T15:47:43;9.23;;;7.47;;
37559;SDS011;23398;50.928;7.084;2022-12-05T15:50:13;9.18;;;7.38;;
37559;SDS011;23398;50.928;7.084;2022-12-05T15:52:40;10.25;;;7.90;;
37559;SDS011;23398;50.928;7.084;2022-12-05T16:00:47;8.93;;;6.43;;
37559;SDS011;23398;50.928;7.084;2022-12-05T16:03:35;8.30;;;6.67;;
37559;SDS011;23398;50.928;7.084;2022-12-05T16:06:10;8.90;;;6.50;;
37559;SDS011;23398;50.928;7.084;2022-12-05T16:08:44;8.38;;;6.25;;
37559;SDS011;23398;50.928;7.084;2022-12-05T16:11:11;7.93;;;6.30;;
37559;SDS011;23398;50.928;7.084;2022-12-05T16:13:44;7.78;;;6.00;;
37559;SDS011;23398;50.928;7.084;2022-12-05T16:16:19;7.95;;;6.13;;
37559;SDS011;23398;50.928;7.084;2022-12-05T16:18:48;7.25;;;6.03;;
37559;SDS011;23398;50.928;7.084;2022-12-05T16:21:35;7.72;;;5.80;;
37559;SDS011;23398;50.928;7.084;2022-12-05T16:24:06;8.40;;;5.93;;
37559;SDS011;23398;50.928;7.084;2022-12-05T16:26:38;8.45;;;6.68;;
37559;SDS011;23398;50.928;7.084;2022-12-05T16:29:05;8.10;;;6.57;;
37559;SDS011;23398;50.928;7.084;2022-12-05T16:31:33;8.57;;;6.75;;
37559;SDS011;23398;50.928;7.084;2022-12-05T16:34:04;9.93;;;7.22;;
37559;SDS011;23398;50.928;7.084;2022-12-05T16:36:32;7.82;;;6.53;;
37559;SDS011;23398;50.928;7.084;2022-12-05T16:38:59;9.10;;;6.95;;
37559;SDS011;23398;50.928;7.084;2022-12-05T16:41:33;7.22;;;6.43;;
37559;SDS011;23398;50.928;7.084;2022-12-05T16:44:00;8.23;;;6.63;;
37559;SDS011;23398;50.928;7.084;2022-12-05T16:51:41;7.28;;;5.85;;
37559;SDS011;23398;50.928;7.084;2022-12-05T16:54:09;7.20;;;5.63;;
37559;SDS011;23398;50.928;7.084;2022-12-05T16:56:35;7.07;;;6.13;;
37559;SDS011;23398;50.928;7.084;2022-12-05T16:59:02;7.68;;;6.15;;
37559;SDS011;23398;50.928;7.084;2022-12-05T17:01:29;7.43;;;6.50;;
37559;SDS011;23398;50.928;7.084;2022-12-05T17:03:55;7.67;;;6.50;;
37559;SDS011;23398;50.928;7.084;2022-12-05T17:06:21;7.20;;;6.30;;
37559;SDS011;23398;50.928;7.084;2022-12-05T17:08:48;7.75;;;6.15;;
37559;SDS011;23398;50.928;7.084;2022-12-05T17:14:14;7.73;;;6.10;;
37559;SDS011;23398;50.928;7.084;2022-12-05T17:16:41;7.35;;;5.97;;
37559;SDS011;23398;50.928;7.084;2022-12-05T17:19:08;7.97;;;6.07;;
37559;SDS011;23398;50.928;7.084;2022-12-05T17:21:37;7.87;;;5.77;;
37559;SDS011;23398;50.928;7.084;2022-12-05T17:24:05;6.70;;;5.32;;
37559;SDS011;23398;50.928;7.084;2022-12-05T17:26:32;8.03;;;6.20;;
37559;SDS011;23398;50.928;7.084;2022-12-05T17:28:57;7.37;;;5.83;;
37559;SDS011;23398;50.928;7.084;2022-12-05T17:31:23;6.50;;;5.60;;
37559;SDS011;23398;50.928;7.084;2022-12-05T17:33:50;6.82;;;5.57;;
37559;SDS011;23398;50.928;7.084;2022-12-05T17:36:17;6.77;;;5.77;;
37559;SDS011;23398;50.928;7.084;2022-12-05T17:38:45;7.83;;;5.77;;
37559;SDS011;23398;50.928;7.084;2022-12-05T17:41:17;7.93;;;5.63;;
37559;SDS011;23398;50.928;7.084;2022-12-05T17:43:45;6.63;;;5.75;;
37559;SDS011;23398;50.928;7.084;2022-12-05T17:46:15;7.63;;;5.97;;
37559;SDS011;23398;50.928;7.084;2022-12-05T17:48:43;7.57;;;5.88;;
37559;SDS011;23398;50.928;7.084;2022-12-05T17:51:09;6.30;;;5.37;;
37559;SDS011;23398;50.928;7.084;2022-12-05T17:53:38;6.43;;;5.67;;
37559;SDS011;23398;50.928;7.084;2022-12-05T17:56:05;6.60;;;5.53;;
37559;SDS011;23398;50.928;7.084;2022-12-05T17:58:31;5.33;;;4.77;;
37559;SDS011;23398;50.928;7.084;2022-12-05T18:00:57;10.52;;;7.28;;